Time;durP1;ratioP1;P1;durP2;ratioP2;P2;SDS_P1;SDS_P2;PMS_P1;PMS_P2;Temp;Humidity;BMP_temperature;BMP_pressure;BME280_temperature;BME280_humidity;BME280_pressure;Samples;Min_cycle;Max_cycle;Signal;HPM_P1;HPM_P2
2023/08/24 00:00:51;;;;;;;9.32;6.35;;;;;;;17.81;100.00;101648.63;5308782;28;20424;-69
2023/08/24 00:03:23;;;;;;;9.23;7.22;;;;;;;17.79;100.00;101647.88;5301630;28;20105;-69
2023/08/24 00:05:54;;;;;;;8.15;6.88;;;;;;;17.70;100.00;101639.81;5301176;28;20043;-69
2023/08/24 00:08:26;;;;;;;10.15;7.18;;;;;;;17.64;100.00;101639.41;5290834;28;20028;-69
2023/08/24 00:10:58;;;;;;;11.05;7.05;;;;;;;17.63;100.00;101653.88;5302717;28;21021;-69
2023/08/24 00:13:30;;;;;;;8.82;6.68;;;;;;;17.67;100.00;101654.44;5298537;28;20027;-69
2023/08/24 00:16:01;;;;;;;10.02;6.65;;;;;;;17.73;100.00;101656.56;5295839;28;20024;-69
2023/08/24 00:18:32;;;;;;;8.80;7.25;;;;;;;17.70;100.00;101650.59;5291172;28;20066;-69
2023/08/24 00:21:04;;;;;;;9.48;6.57;;;;;;;17.72;100.00;101638.69;5298313;28;20079;-69
2023/08/24 00:23:35;;;;;;;10.07;6.85;;;;;;;17.62;100.00;101632.44;5290001;28;20028;-69
2023/08/24 00:26:06;;;;;;;8.65;6.53;;;;;;;17.60;100.00;101632.59;5312511;28;20476;-69
2023/08/24 00:28:38;;;;;;;10.15;7.35;;;;;;;17.53;100.00;101623.38;5297468;28;20042;-69
2023/08/24 00:31:09;;;;;;;9.98;6.45;;;;;;;17.57;100.00;101632.88;5303816;28;20031;-69
2023/08/24 00:33:41;;;;;;;9.38;6.43;;;;;;;17.50;100.00;101628.19;5297037;28;20016;-69
2023/08/24 00:36:12;;;;;;;12.93;6.93;;;;;;;17.53;100.00;101628.78;5301949;28;20043;-69
2023/08/24 00:38:44;;;;;;;10.27;6.75;;;;;;;17.57;100.00;101630.19;5294315;28;20032;-68
2023/08/24 00:41:15;;;;;;;10.90;6.40;;;;;;;17.46;100.00;101624.09;5290125;28;20033;-69
2023/08/24 00:43:47;;;;;;;9.52;6.93;;;;;;;17.54;100.00;101613.41;5298266;28;20027;-69
2023/08/24 00:46:18;;;;;;;9.80;6.75;;;;;;;17.52;100.00;101610.03;5292864;28;20377;-69
2023/08/24 00:48:51;;;;;;;8.93;6.75;;;;;;;17.53;100.00;101615.28;5295414;28;20040;-69
2023/08/24 00:51:24;;;;;;;8.70;6.90;;;;;;;17.43;100.00;101611.72;5299336;28;20043;-69
2023/08/24 00:53:57;;;;;;;10.32;6.70;;;;;;;17.60;100.00;101612.84;5292237;28;20398;-69
2023/08/24 00:56:29;;;;;;;11.07;7.53;;;;;;;17.67;100.00;101618.53;5290660;28;20032;-69
2023/08/24 00:59:01;;;;;;;12.00;7.45;;;;;;;17.52;100.00;101620.81;5287929;28;20028;-69
2023/08/24 01:01:33;;;;;;;9.32;6.57;;;;;;;17.71;100.00;101620.78;5296948;28;20044;-69
2023/08/24 01:04:05;;;;;;;10.38;7.53;;;;;;;17.63;100.00;101615.25;5292724;28;20031;-68
2023/08/24 01:06:37;;;;;;;9.10;7.18;;;;;;;17.65;100.00;101607.88;5290538;28;20050;-69
2023/08/24 01:09:08;;;;;;;10.32;7.15;;;;;;;17.52;100.00;101607.31;5293657;28;20118;-69
2023/08/24 01:12:04;;;;;;;11.77;6.70;;;;;;;17.55;100.00;101617.84;5299526;27;20039;-69
2023/08/24 01:14:45;;;;;;;9.05;7.15;;;;;;;17.47;100.00;101620.38;5288505;28;20107;-69
2023/08/24 01:17:28;;;;;;;9.82;7.47;;;;;;;17.38;100.00;101625.66;5284633;28;20123;-69
2023/08/24 01:20:01;;;;;;;11.75;7.80;;;;;;;17.43;100.00;101617.13;5285550;28;20028;-70
2023/08/24 01:22:37;;;;;;;10.13;7.40;;;;;;;17.38;100.00;101606.75;5279697;28;20146;-69
2023/08/24 01:25:16;;;;;;;8.43;6.80;;;;;;;17.38;100.00;101614.84;5281353;28;20370;-69
2023/08/24 01:27:49;;;;;;;10.15;7.50;;;;;;;17.40;100.00;101612.88;5284217;28;20043;-69
2023/08/24 01:30:20;;;;;;;10.02;7.18;;;;;;;17.38;100.00;101608.63;5279102;28;20028;-69
2023/08/24 01:32:52;;;;;;;9.02;6.70;;;;;;;17.41;100.00;101611.88;5282161;28;20085;-69
2023/08/24 01:35:23;;;;;;;9.85;7.07;;;;;;;17.49;100.00;101615.69;5286535;28;20118;-69
2023/08/24 01:37:55;;;;;;;9.75;6.80;;;;;;;17.44;100.00;101613.44;5284315;28;20016;-69
2023/08/24 01:40:51;;;;;;;10.40;7.40;;;;;;;17.41;100.00;101606.50;5283773;28;20028;-69
2023/08/24 01:43:27;;;;;;;12.32;7.80;;;;;;;17.42;100.00;101605.47;5282640;28;20028;-69
2023/08/24 01:45:58;;;;;;;11.02;7.63;;;;;;;17.67;100.00;101607.72;5281139;28;20102;-69
2023/08/24 01:48:31;;;;;;;9.50;7.45;;;;;;;17.67;100.00;101608.56;5283551;28;20028;-69
2023/08/24 01:51:04;;;;;;;11.10;7.80;;;;;;;17.78;100.00;101612.97;5282556;28;20390;-69
2023/08/24 01:53:36;;;;;;;12.43;8.63;;;;;;;17.73;100.00;101605.28;5281564;28;20490;-69
2023/08/24 01:56:12;;;;;;;9.98;8.30;;;;;;;17.91;100.00;101612.66;5282441;28;20044;-69
2023/08/24 01:58:43;;;;;;;12.52;8.82;;;;;;;17.85;100.00;101615.94;5282365;28;20120;-69
2023/08/24 02:01:15;;;;;;;13.10;9.15;;;;;;;17.82;100.00;101620.59;5282474;28;20405;-69
2023/08/24 02:03:46;;;;;;;13.15;9.15;;;;;;;17.94;100.00;101615.91;5285575;28;20982;-69
2023/08/24 02:06:18;;;;;;;11.98;9.15;;;;;;;17.99;100.00;101608.22;5283850;28;20486;-69
2023/08/24 02:08:50;;;;;;;11.40;8.65;;;;;;;17.90;100.00;101609.09;5281088;28;20036;-69
2023/08/24 02:11:21;;;;;;;11.07;9.05;;;;;;;17.95;100.00;101604.13;5283863;28;20028;-69
2023/08/24 02:13:52;;;;;;;11.77;9.18;;;;;;;17.94;100.00;101586.22;5284782;28;20080;-69
2023/08/24 02:16:24;;;;;;;9.77;8.63;;;;;;;18.17;100.00;101594.78;5285186;28;20024;-69
2023/08/24 02:18:55;;;;;;;10.45;8.95;;;;;;;18.05;100.00;101595.16;5284410;28;20087;-69
2023/08/24 02:21:27;;;;;;;10.65;8.57;;;;;;;18.11;100.00;101600.78;5280995;28;20136;-69
2023/08/24 02:23:59;;;;;;;11.23;7.97;;;;;;;18.02;100.00;101602.56;5285693;28;20040;-69
2023/08/24 02:26:30;;;;;;;12.15;8.45;;;;;;;18.10;100.00;101599.13;5281816;28;20021;-69
2023/08/24 02:29:01;;;;;;;11.60;8.02;;;;;;;18.01;100.00;101590.03;5279701;28;20059;-69
2023/08/24 02:31:33;;;;;;;8.93;7.53;;;;;;;18.02;100.00;101589.06;5281770;28;20115;-69
2023/08/24 02:34:04;;;;;;;10.68;7.63;;;;;;;18.05;100.00;101596.00;5282849;28;20047;-70
2023/08/24 02:36:36;;;;;;;10.88;7.95;;;;;;;18.12;100.00;101599.81;5278783;28;20154;-69
2023/08/24 02:39:07;;;;;;;12.02;8.27;;;;;;;18.18;100.00;101590.28;5286078;28;20099;-69
2023/08/24 02:41:39;;;;;;;13.23;7.95;;;;;;;18.12;100.00;101589.00;5283273;28;20020;-69
2023/08/24 02:44:10;;;;;;;10.40;8.13;;;;;;;18.06;100.00;101572.53;5282300;28;20085;-69
2023/08/24 02:46:44;;;;;;;11.65;7.85;;;;;;;18.15;100.00;101566.25;5283098;28;20435;-69
2023/08/24 02:49:16;;;;;;;12.13;8.40;;;;;;;18.07;100.00;101560.75;5284572;28;20058;-69
2023/08/24 02:51:47;;;;;;;13.23;8.80;;;;;;;18.16;100.00;101551.72;5283865;28;20028;-69
2023/08/24 02:54:19;;;;;;;15.85;10.50;;;;;;;18.25;100.00;101541.88;5284401;28;20443;-69
2023/08/24 02:56:50;;;;;;;15.25;10.35;;;;;;;18.16;100.00;101539.09;5282032;28;20020;-69
2023/08/24 02:59:22;;;;;;;15.65;11.18;;;;;;;18.11;100.00;101541.38;5283936;28;20033;-69
2023/08/24 03:01:53;;;;;;;14.93;10.88;;;;;;;18.21;100.00;101534.06;5276184;28;20135;-69
2023/08/24 03:04:24;;;;;;;14.52;11.45;;;;;;;18.24;100.00;101516.72;5286184;28;20031;-69
2023/08/24 03:06:56;;;;;;;17.42;12.73;;;;;;;18.15;100.00;101498.72;5286157;28;20036;-69
2023/08/24 03:09:28;;;;;;;15.32;11.70;;;;;;;18.21;100.00;101465.69;5282433;28;20032;-69
2023/08/24 03:11:59;;;;;;;14.32;11.52;;;;;;;18.04;100.00;101461.97;5283734;28;20028;-69
2023/08/24 03:14:30;;;;;;;16.85;12.07;;;;;;;17.98;100.00;101467.97;5284053;28;20427;-69
2023/08/24 03:17:04;;;;;;;13.57;11.90;;;;;;;18.09;100.00;101475.03;5285586;28;20028;-69
2023/08/24 03:19:35;;;;;;;19.17;14.35;;;;;;;18.05;100.00;101479.88;5283627;28;20027;-69
2023/08/24 03:22:06;;;;;;;18.42;13.95;;;;;;;18.02;100.00;101466.66;5283015;28;20035;-70
2023/08/24 03:24:38;;;;;;;17.65;13.65;;;;;;;17.94;100.00;101456.63;5282899;28;20478;-69
2023/08/24 03:27:09;;;;;;;17.90;14.30;;;;;;;18.07;100.00;101441.94;5283438;28;20074;-69
2023/08/24 03:29:40;;;;;;;19.83;15.05;;;;;;;18.06;100.00;101441.06;5279920;28;20032;-69
2023/08/24 03:32:12;;;;;;;20.15;15.38;;;;;;;17.96;100.00;101438.41;5284984;28;20115;-69
2023/08/24 03:34:44;;;;;;;17.40;14.57;;;;;;;17.88;100.00;101432.09;5285134;28;20036;-69
2023/08/24 03:37:15;;;;;;;19.27;15.10;;;;;;;18.09;100.00;101424.56;5283344;28;20032;-69
2023/08/24 03:39:46;;;;;;;21.13;16.77;;;;;;;17.99;100.00;101410.28;5285209;28;20085;-69
2023/08/24 03:42:18;;;;;;;18.55;15.45;;;;;;;17.92;100.00;101401.09;5288358;28;20051;-69
2023/08/24 03:44:50;;;;;;;19.83;15.57;;;;;;;17.95;100.00;101400.75;5283919;28;20024;-69
2023/08/24 03:47:21;;;;;;;22.50;16.15;;;;;;;17.94;100.00;101397.22;5289127;28;20050;-69
2023/08/24 03:49:52;;;;;;;23.08;18.15;;;;;;;17.97;100.00;101404.19;5286217;28;20704;-69
2023/08/24 03:52:24;;;;;;;22.40;16.50;;;;;;;18.02;100.00;101407.25;5287045;28;20032;-69
2023/08/24 03:54:55;;;;;;;22.80;17.23;;;;;;;18.05;100.00;101415.06;5286096;28;20483;-69
2023/08/24 03:57:27;;;;;;;22.40;19.38;;;;;;;17.99;100.00;101415.69;5291420;28;20048;-69
2023/08/24 03:59:59;;;;;;;21.88;18.08;;;;;;;18.00;100.00;101429.00;5292607;28;20055;-68
2023/08/24 04:02:30;;;;;;;24.77;19.15;;;;;;;18.07;100.00;101431.13;5285882;28;20059;-68
2023/08/24 04:05:02;;;;;;;24.58;19.33;;;;;;;18.01;100.00;101435.28;5298763;28;20028;-68
2023/08/24 04:07:36;;;;;;;21.38;17.25;;;;;;;17.97;100.00;101431.19;5288326;28;20500;-69
2023/08/24 04:10:07;;;;;;;;;;;;;;;18.08;100.00;101432.81;5287722;28;20016;-68
2023/08/24 04:12:39;;;;;;;23.45;18.02;;;;;;;17.95;100.00;101431.31;5289837;28;20289;-69
2023/08/24 04:15:11;;;;;;;22.05;17.27;;;;;;;17.92;100.00;101438.88;5286270;28;20501;-68
2023/08/24 04:17:42;;;;;;;23.65;18.67;;;;;;;18.06;100.00;101442.91;5294250;28;20028;-68
2023/08/24 04:20:13;;;;;;;24.77;18.35;;;;;;;17.98;100.00;101438.28;5292285;28;20043;-69
2023/08/24 04:22:45;;;;;;;21.83;17.48;;;;;;;17.95;100.00;101442.13;5296830;28;20028;-68
2023/08/24 04:25:16;;;;;;;22.27;17.05;;;;;;;17.90;100.00;101443.59;5289522;28;20032;-68
2023/08/24 04:27:48;;;;;;;24.25;17.38;;;;;;;17.81;100.00;101443.47;5293480;28;20588;-69
2023/08/24 04:30:19;;;;;;;23.38;17.90;;;;;;;18.06;100.00;101451.00;5284328;28;20035;-68
2023/08/24 04:32:51;;;;;;;27.80;19.13;;;;;;;17.97;100.00;101448.22;5294118;28;20039;-69
2023/08/24 04:35:25;;;;;;;23.60;18.75;;;;;;;18.02;100.00;101450.47;5293804;28;20411;-69
2023/08/24 04:37:56;;;;;;;22.02;19.05;;;;;;;17.98;100.00;101457.16;5299225;28;20062;-69
2023/08/24 04:40:28;;;;;;;24.95;19.92;;;;;;;18.12;100.00;101451.28;5298177;28;20031;-68
2023/08/24 04:42:59;;;;;;;23.35;19.70;;;;;;;18.08;100.00;101451.72;5287160;28;20271;-69
2023/08/24 04:45:30;;;;;;;22.95;19.33;;;;;;;18.13;100.00;101452.94;5286695;28;20421;-68
2023/08/24 04:48:02;;;;;;;23.88;18.48;;;;;;;17.96;100.00;101448.38;5287121;28;20024;-68
2023/08/24 04:50:34;;;;;;;22.83;18.08;;;;;;;17.92;100.00;101449.69;5285983;28;20039;-69
2023/08/24 04:53:06;;;;;;;22.77;18.75;;;;;;;17.98;100.00;101444.50;5291941;28;20032;-68
2023/08/24 04:55:37;;;;;;;22.88;19.52;;;;;;;18.05;100.00;101455.56;5294894;28;20070;-68
2023/08/24 04:58:09;;;;;;;23.98;19.42;;;;;;;17.82;100.00;101433.50;5295012;28;20740;-69
2023/08/24 05:00:41;;;;;;;23.65;19.35;;;;;;;17.76;100.00;101426.84;5278054;28;20790;-68
2023/08/24 05:03:13;;;;;;;24.52;20.05;;;;;;;17.94;100.00;101436.88;5290066;28;20056;-68
2023/08/24 05:05:45;;;;;;;24.38;19.42;;;;;;;18.00;100.00;101441.66;5285896;28;20028;-68
2023/08/24 05:08:16;;;;;;;22.48;19.35;;;;;;;17.87;100.00;101452.81;5291185;28;20047;-69
2023/08/24 05:10:47;;;;;;;24.70;20.65;;;;;;;17.89;100.00;101458.94;5289407;28;20036;-68
2023/08/24 05:13:19;;;;;;;22.58;19.20;;;;;;;17.82;100.00;101455.94;5286865;27;20081;-69
2023/08/24 05:15:50;;;;;;;26.15;20.92;;;;;;;17.82;100.00;101455.09;5290298;28;20032;-68
2023/08/24 05:18:21;;;;;;;23.25;20.73;;;;;;;17.98;100.00;101443.66;5290554;28;20028;-69
2023/08/24 05:20:53;;;;;;;26.10;22.20;;;;;;;17.97;100.00;101440.13;5296830;28;20031;-68
2023/08/24 05:23:24;;;;;;;24.13;20.48;;;;;;;17.91;100.00;101437.16;5287989;28;20020;-68
2023/08/24 05:26:00;;;;;;;23.75;19.67;;;;;;;17.87;100.00;101430.38;5288869;28;20088;-68
2023/08/24 05:28:32;;;;;;;26.70;21.10;;;;;;;17.88;100.00;101426.69;5285520;28;20058;-68
2023/08/24 05:31:03;;;;;;;24.02;20.80;;;;;;;18.00;100.00;101420.06;5285930;28;20032;-68
2023/08/24 05:33:35;;;;;;;25.95;20.92;;;;;;;17.92;100.00;101423.53;5291103;28;20032;-69
2023/08/24 05:36:06;;;;;;;23.70;21.20;;;;;;;17.96;100.00;101427.63;5281422;28;20020;-68
2023/08/24 05:38:38;;;;;;;24.17;21.40;;;;;;;18.07;100.00;101423.88;5286066;28;20032;-69
2023/08/24 05:41:09;;;;;;;25.17;22.30;;;;;;;17.84;100.00;101426.13;5294445;28;20397;-68
2023/08/24 05:43:41;;;;;;;24.05;21.15;;;;;;;17.93;100.00;101410.88;5286778;28;20505;-68
2023/08/24 05:46:12;;;;;;;26.33;21.77;;;;;;;17.95;100.00;101422.34;5297021;28;20035;-69
2023/08/24 05:48:43;;;;;;;25.40;20.58;;;;;;;18.06;100.00;101416.75;5297994;28;20442;-69
2023/08/24 05:51:15;;;;;;;27.95;23.40;;;;;;;18.08;100.00;101425.53;5278447;28;20556;-68
2023/08/24 05:53:46;;;;;;;29.08;24.90;;;;;;;18.19;100.00;101411.81;5290191;28;20048;-69
2023/08/24 05:56:17;;;;;;;28.52;24.02;;;;;;;18.19;100.00;101405.59;5294815;28;20036;-68
2023/08/24 05:58:49;;;;;;;28.17;24.42;;;;;;;18.13;100.00;101390.00;5291893;28;20362;-69
2023/08/24 06:01:20;;;;;;;26.92;22.80;;;;;;;18.25;100.00;101380.66;5280907;28;21382;-69
2023/08/24 06:03:52;;;;;;;28.35;23.27;;;;;;;18.07;100.00;101375.25;5279982;28;20432;-68
2023/08/24 06:06:23;;;;;;;25.77;23.02;;;;;;;18.17;100.00;101376.00;5293959;28;20086;-68
2023/08/24 06:08:55;;;;;;;26.42;23.63;;;;;;;18.16;100.00;101370.75;5284028;28;20039;-69
2023/08/24 06:11:26;;;;;;;26.48;23.10;;;;;;;18.23;100.00;101356.47;5284893;28;20413;-69
2023/08/24 06:13:57;;;;;;;27.10;22.85;;;;;;;18.29;100.00;101349.63;5284049;28;20047;-69
2023/08/24 06:16:29;;;;;;;28.25;24.90;;;;;;;18.25;100.00;101350.09;5286477;28;20028;-68
2023/08/24 06:19:00;;;;;;;26.55;23.60;;;;;;;18.26;100.00;101357.22;5284552;28;20544;-68
2023/08/24 06:21:32;;;;;;;25.95;23.25;;;;;;;18.25;100.00;101358.19;5284118;28;20070;-69
2023/08/24 06:24:03;;;;;;;28.77;25.13;;;;;;;18.39;100.00;101363.91;5284864;28;20069;-68
2023/08/24 06:26:35;;;;;;;28.63;24.27;;;;;;;18.36;100.00;101360.66;5284707;28;20517;-68
2023/08/24 06:29:06;;;;;;;27.73;24.83;;;;;;;18.39;100.00;101365.78;5285725;28;20024;-69
2023/08/24 06:31:38;;;;;;;26.10;23.30;;;;;;;18.25;100.00;101363.59;5280292;28;20068;-69
2023/08/24 06:34:09;;;;;;;25.75;22.63;;;;;;;18.40;100.00;101376.38;5283358;28;20028;-69
2023/08/24 06:36:41;;;;;;;25.80;23.10;;;;;;;18.43;100.00;101361.75;5283321;28;20021;-69
2023/08/24 06:39:12;;;;;;;26.75;23.50;;;;;;;18.45;100.00;101369.66;5282946;28;20032;-69
2023/08/24 06:41:43;;;;;;;25.25;22.65;;;;;;;18.35;100.00;101367.06;5286257;28;20039;-69
2023/08/24 06:44:15;;;;;;;23.92;21.42;;;;;;;18.41;100.00;101363.75;5284585;28;20102;-69
2023/08/24 06:46:47;;;;;;;28.52;25.27;;;;;;;18.41;100.00;101358.34;5279619;28;20121;-69
2023/08/24 06:49:19;;;;;;;25.45;22.83;;;;;;;18.47;100.00;101357.72;5283831;28;20123;-69
2023/08/24 06:51:51;;;;;;;26.60;22.98;;;;;;;18.53;100.00;101361.66;5281266;28;20062;-69
2023/08/24 06:54:22;;;;;;;24.55;21.95;;;;;;;18.53;100.00;101361.66;5285860;28;20026;-69
2023/08/24 06:56:54;;;;;;;25.17;22.52;;;;;;;18.60;100.00;101366.28;5282907;28;20031;-69
2023/08/24 06:59:25;;;;;;;24.15;21.15;;;;;;;18.73;100.00;101365.00;5287017;28;20024;-68
2023/08/24 07:01:57;;;;;;;26.65;22.33;;;;;;;18.67;100.00;101368.34;5281873;28;20044;-69
2023/08/24 07:04:29;;;;;;;23.92;19.80;;;;;;;18.70;100.00;101363.47;5285022;28;20032;-69
2023/08/24 07:07:00;;;;;;;20.98;18.85;;;;;;;18.70;100.00;101357.22;5282990;28;20085;-69
2023/08/24 07:09:32;;;;;;;21.52;19.25;;;;;;;18.79;100.00;101350.84;5284152;28;20032;-69
2023/08/24 07:12:06;;;;;;;23.25;20.52;;;;;;;18.75;100.00;101344.06;5285648;28;20127;-69
2023/08/24 07:14:38;;;;;;;19.10;16.23;;;;;;;18.78;100.00;101343.75;5288585;28;20480;-68
2023/08/24 07:17:09;;;;;;;20.48;17.00;;;;;;;18.88;100.00;101333.69;5288064;28;20494;-69
2023/08/24 07:19:41;;;;;;;24.92;18.77;;;;;;;18.98;100.00;101328.16;5289833;28;20031;-69
2023/08/24 07:22:12;;;;;;;20.88;18.50;;;;;;;19.12;100.00;101334.81;5287370;28;20083;-69
2023/08/24 07:24:44;;;;;;;21.15;16.25;;;;;;;18.97;100.00;101338.16;5287689;28;20194;-69
2023/08/24 07:27:16;;;;;;;27.73;17.08;;;;;;;19.10;100.00;101331.44;5291048;28;20024;-69
2023/08/24 07:29:48;;;;;;;17.48;14.57;;;;;;;19.11;100.00;101334.00;5286718;28;20370;-69
2023/08/24 07:32:19;;;;;;;20.83;16.52;;;;;;;19.28;100.00;101328.66;5285481;28;20135;-69
2023/08/24 07:34:51;;;;;;;21.10;16.48;;;;;;;19.46;100.00;101323.97;5283575;28;20048;-69
2023/08/24 07:37:22;;;;;;;20.15;14.85;;;;;;;19.52;100.00;101326.06;5288932;28;20459;-70
2023/08/24 07:39:54;;;;;;;18.50;15.52;;;;;;;19.61;100.00;101324.19;5285192;28;20224;-70
2023/08/24 07:42:25;;;;;;;19.75;14.93;;;;;;;19.83;100.00;101319.19;5278444;28;20035;-69
2023/08/24 07:44:56;;;;;;;16.10;14.07;;;;;;;19.90;100.00;101312.13;5285601;28;20057;-69
2023/08/24 07:47:28;;;;;;;16.55;13.38;;;;;;;20.12;100.00;101311.47;5285726;28;20885;-69
2023/08/24 07:49:59;;;;;;;16.75;14.25;;;;;;;20.12;100.00;101316.88;5286371;28;20124;-69
2023/08/24 07:52:31;;;;;;;18.77;13.35;;;;;;;20.34;100.00;101323.47;5284520;28;20054;-69
2023/08/24 07:55:03;;;;;;;17.15;14.20;;;;;;;20.38;100.00;101323.97;5282762;28;20424;-69
2023/08/24 07:57:36;;;;;;;15.00;12.65;;;;;;;20.69;100.00;101323.31;5287500;28;20486;-69
2023/08/24 08:00:09;;;;;;;19.40;13.23;;;;;;;20.65;100.00;101327.38;5290622;28;20507;-69
2023/08/24 08:02:41;;;;;;;14.97;12.80;;;;;;;20.86;100.00;101334.97;5284103;28;20056;-69
2023/08/24 08:05:12;;;;;;;17.15;12.82;;;;;;;20.87;100.00;101325.81;5278625;28;20037;-69
2023/08/24 08:07:44;;;;;;;15.60;11.88;;;;;;;21.05;100.00;101312.88;5285104;28;20064;-69
2023/08/24 08:10:17;;;;;;;18.63;12.40;;;;;;;21.06;100.00;101306.44;5287465;28;20036;-69
2023/08/24 08:12:48;;;;;;;16.70;11.05;;;;;;;21.18;100.00;101312.31;5282876;28;20025;-69
2023/08/24 08:15:20;;;;;;;14.65;11.27;;;;;;;21.35;100.00;101307.66;5280949;28;20019;-69
2023/08/24 08:17:52;;;;;;;13.82;11.15;;;;;;;21.50;100.00;101302.38;5282209;28;20034;-69
2023/08/24 08:20:23;;;;;;;15.88;10.18;;;;;;;21.71;100.00;101291.72;5286389;28;20398;-69
2023/08/24 08:22:55;;;;;;;13.50;10.65;;;;;;;21.76;100.00;101283.00;5292589;28;20028;-69
2023/08/24 08:25:26;;;;;;;13.82;10.80;;;;;;;21.85;100.00;101281.94;5294402;28;20024;-69
2023/08/24 08:27:58;;;;;;;14.18;10.10;;;;;;;21.93;100.00;101272.88;5298708;28;20035;-70
2023/08/24 08:30:29;;;;;;;14.75;11.23;;;;;;;22.06;100.00;101264.94;5288576;28;20032;-70
2023/08/24 08:33:01;;;;;;;15.68;10.63;;;;;;;22.25;100.00;101273.66;5302377;28;20029;-70
2023/08/24 08:35:32;;;;;;;16.00;10.68;;;;;;;22.39;100.00;101272.84;5291649;28;20446;-70
2023/08/24 08:38:05;;;;;;;16.30;10.23;;;;;;;22.40;100.00;101273.69;5289758;28;20387;-70
2023/08/24 08:40:37;;;;;;;14.65;10.75;;;;;;;22.43;100.00;101266.00;5295393;28;20045;-70
2023/08/24 08:43:09;;;;;;;14.32;10.23;;;;;;;22.55;100.00;101260.09;5286928;28;20056;-70
2023/08/24 08:45:41;;;;;;;14.73;10.38;;;;;;;22.67;100.00;101243.16;5291303;28;20038;-70
2023/08/24 08:48:12;;;;;;;13.57;10.52;;;;;;;22.68;100.00;101243.97;5290842;28;20096;-70
2023/08/24 08:50:44;;;;;;;15.07;11.50;;;;;;;22.84;100.00;101227.47;5301559;28;20023;-70
2023/08/24 08:53:16;;;;;;;13.68;10.48;;;;;;;22.87;100.00;101224.34;5290204;28;20031;-70
2023/08/24 08:55:50;;;;;;;13.52;9.95;;;;;;;22.85;100.00;101217.44;5302055;28;20031;-70
2023/08/24 08:58:21;;;;;;;14.48;10.48;;;;;;;23.13;100.00;101208.59;5295540;28;20056;-70
2023/08/24 09:00:53;;;;;;;12.52;9.68;;;;;;;23.08;100.00;101201.84;5285019;28;20054;-70
2023/08/24 09:03:27;;;;;;;13.95;9.23;;;;;;;23.23;100.00;101192.81;5286452;28;20424;-70
2023/08/24 09:05:59;;;;;;;12.85;10.20;;;;;;;23.31;100.00;101191.84;5285444;28;20068;-70
2023/08/24 09:08:31;;;;;;;11.70;10.10;;;;;;;23.35;100.00;101171.34;5307819;28;20120;-70
2023/08/24 09:11:03;;;;;;;12.85;10.27;;;;;;;23.40;100.00;101163.44;5289931;28;20075;-71
2023/08/24 09:13:34;;;;;;;14.90;9.38;;;;;;;23.34;100.00;101173.25;5288231;28;20115;-70
2023/08/24 09:16:07;;;;;;;12.50;8.80;;;;;;;23.61;100.00;101155.28;5301169;28;20012;-70
2023/08/24 09:18:40;;;;;;;10.82;8.35;;;;;;;23.59;100.00;101149.19;5284005;28;20118;-70
2023/08/24 09:21:15;;;;;;;10.52;8.30;;;;;;;23.68;100.00;101136.25;5280441;28;20029;-70
2023/08/24 09:23:57;;;;;;;13.07;8.40;;;;;;;23.58;100.00;101139.31;5289323;28;20146;-70
2023/08/24 09:26:36;;;;;;;12.60;7.85;;;;;;;23.72;100.00;101139.41;5291393;28;20143;-70
2023/08/24 09:29:17;;;;;;;14.93;10.35;;;;;;;23.88;100.00;101133.72;5295411;28;20098;-70
2023/08/24 09:31:51;;;;;;;17.15;11.65;;;;;;;24.00;100.00;101143.03;5289573;28;20867;-70
2023/08/24 09:34:26;;;;;;;;;;;;;;;24.17;100.00;101148.19;5285513;28;20386;-70
2023/08/24 09:36:57;;;;;;;17.50;12.38;;;;;;;24.14;100.00;101154.03;5284274;28;19985;-70
2023/08/24 09:39:29;;;;;;;17.73;11.68;;;;;;;24.25;100.00;101167.09;5286806;28;20028;-70
2023/08/24 09:42:04;;;;;;;15.30;12.85;;;;;;;24.24;100.00;101184.53;5292201;28;20432;-70
2023/08/24 09:44:36;;;;;;;13.45;11.10;;;;;;;24.39;100.00;101195.28;5296348;28;20036;-70
2023/08/24 09:47:11;;;;;;;14.85;11.55;;;;;;;24.43;100.00;101194.72;5289781;28;20375;-70
2023/08/24 09:49:43;;;;;;;14.25;11.38;;;;;;;24.37;100.00;101198.22;5293510;28;20042;-70
2023/08/24 09:52:14;;;;;;;13.13;11.05;;;;;;;24.52;100.00;101194.56;5294670;28;20016;-70
2023/08/24 09:54:47;;;;;;;12.65;11.32;;;;;;;24.43;100.00;101191.97;5288674;28;20048;-70
2023/08/24 09:57:19;;;;;;;13.25;11.20;;;;;;;24.48;100.00;101206.91;5284285;28;20036;-70
2023/08/24 09:59:51;;;;;;;14.82;10.60;;;;;;;24.51;100.00;101198.28;5284442;28;20135;-70
2023/08/24 10:02:25;;;;;;;13.45;11.02;;;;;;;24.61;100.00;101201.56;5291781;28;20076;-70
2023/08/24 10:04:58;;;;;;;15.02;10.77;;;;;;;24.59;100.00;101206.38;5297035;28;20378;-70
2023/08/24 10:07:31;;;;;;;14.38;10.20;;;;;;;24.55;100.00;101224.19;5279736;28;20043;-70
2023/08/24 10:10:03;;;;;;;13.02;9.93;;;;;;;24.55;100.00;101216.84;5281283;28;20338;-70
2023/08/24 10:12:41;;;;;;;13.70;9.40;;;;;;;24.54;100.00;101230.69;5284392;28;20028;-70
2023/08/24 10:15:13;;;;;;;13.25;9.07;;;;;;;24.59;100.00;101229.03;5298770;28;20024;-70
2023/08/24 10:17:45;;;;;;;12.82;7.35;;;;;;;24.59;100.00;101233.66;5293460;28;20114;-70
2023/08/24 10:20:19;;;;;;;8.80;6.72;;;;;;;24.66;100.00;101223.59;5287990;28;20223;-70
2023/08/24 10:22:51;;;;;;;10.80;6.25;;;;;;;24.55;100.00;101216.84;5296754;28;20015;-70
2023/08/24 10:25:24;;;;;;;11.13;6.30;;;;;;;24.57;100.00;101205.72;5287298;28;20067;-70
2023/08/24 10:27:57;;;;;;;9.65;6.15;;;;;;;24.46;100.00;101215.28;5294758;28;20029;-70
2023/08/24 10:30:30;;;;;;;8.20;5.72;;;;;;;24.37;100.00;101216.47;5297257;28;20016;-70
2023/08/24 10:33:02;;;;;;;9.80;5.28;;;;;;;24.37;100.00;101221.94;5286241;28;20484;-70
2023/08/24 10:35:34;;;;;;;11.23;5.38;;;;;;;24.27;100.00;101239.47;5283646;28;20430;-70
2023/08/24 10:38:05;;;;;;;8.05;4.30;;;;;;;24.17;100.00;101236.25;5286499;28;20127;-70
2023/08/24 10:40:43;;;;;;;7.22;4.68;;;;;;;24.17;100.00;101239.00;5293204;28;20447;-70
2023/08/24 10:43:15;;;;;;;7.80;4.00;;;;;;;24.17;100.00;101247.16;5285627;28;20405;-70
2023/08/24 10:46:11;;;;;;;6.15;4.03;;;;;;;24.09;100.00;101246.47;5295702;28;20021;-70
2023/08/24 10:48:42;;;;;;;8.95;4.20;;;;;;;23.95;100.00;101242.78;5296558;28;20024;-70
2023/08/24 10:51:13;;;;;;;10.38;4.78;;;;;;;23.99;100.00;101239.47;5298598;28;20085;-70
2023/08/24 10:53:59;;;;;;;11.45;5.60;;;;;;;24.09;100.00;101243.75;5288404;28;20111;-70
2023/08/24 10:56:38;;;;;;;8.38;5.40;;;;;;;23.98;100.00;101240.50;5294880;28;20035;-70
2023/08/24 10:59:19;;;;;;;8.60;5.28;;;;;;;24.14;100.00;101233.91;5288318;28;20020;-70
2023/08/24 11:01:53;;;;;;;9.02;5.28;;;;;;;24.17;100.00;101210.88;5296857;28;20060;-70
2023/08/24 11:04:25;;;;;;;11.93;5.40;;;;;;;24.17;100.00;101219.06;5290739;28;20063;-70
2023/08/24 11:06:59;;;;;;;12.55;6.50;;;;;;;24.20;100.00;101226.84;5296617;28;20527;-70
2023/08/24 11:09:47;;;;;;;9.25;6.13;;;;;;;24.28;100.00;101223.97;5301572;28;20076;-70
2023/08/24 11:12:18;;;;;;;9.85;6.85;;;;;;;24.27;100.00;101205.91;5283628;28;20042;-70
2023/08/24 11:14:54;;;;;;;10.55;6.43;;;;;;;24.38;100.00;101205.38;5287170;28;20420;-70
2023/08/24 11:17:31;;;;;;;10.40;6.05;;;;;;;24.41;100.00;101212.28;5289289;28;20029;-70
2023/08/24 11:20:05;;;;;;;9.82;6.35;;;;;;;24.44;100.00;101188.19;5291272;28;20032;-74
2023/08/24 11:22:37;;;;;;;8.68;5.97;;;;;;;24.39;100.00;101171.59;5288368;28;20992;-70
2023/08/24 11:25:13;;;;;;;10.90;7.25;;;;;;;24.42;100.00;101156.72;5289279;28;20126;-70
2023/08/24 11:27:46;;;;;;;9.63;6.60;;;;;;;24.32;100.00;101153.53;5294750;28;20043;-70
2023/08/24 11:30:17;;;;;;;9.73;6.72;;;;;;;24.29;100.00;101162.09;5297692;28;20023;-70